createdAt,value
2018-05-29T00:00:26.267Z,18.03
2018-05-29T00:02:53.733Z,18.87
2018-05-29T00:05:21.234Z,18.70
2018-05-29T00:07:48.719Z,18.57
2018-05-29T00:10:16.203Z,20.20
2018-05-29T00:12:43.658Z,18.87
2018-05-29T00:15:11.128Z,18.67
2018-05-29T00:20:27.121Z,19.53
2018-05-29T00:22:54.579Z,20.23
2018-05-29T00:25:22.056Z,19.43
2018-05-29T00:27:50.310Z,19.80
2018-05-29T00:30:17.792Z,21.73
2018-05-29T00:32:46.016Z,22.57
2018-05-29T00:35:14.726Z,19.87
2018-05-29T00:37:42.214Z,19.67
2018-05-29T00:40:10.521Z,20.27
2018-05-29T00:42:38.770Z,20.30
2018-05-29T00:45:07.221Z,20.50
2018-05-29T00:47:35.693Z,20.50
2018-05-29T00:50:03.194Z,19.63
2018-05-29T00:52:30.652Z,20.93
2018-05-29T00:55:10.055Z,20.10
2018-05-29T00:57:37.542Z,21.73
2018-05-29T01:00:05.008Z,20.73
2018-05-29T01:02:32.507Z,19.73
2018-05-29T01:04:59.970Z,19.73
2018-05-29T01:07:27.429Z,21.80
2018-05-29T01:09:55.149Z,22.00
2018-05-29T01:12:23.836Z,22.20
2018-05-29T01:14:51.295Z,21.43
2018-05-29T01:17:19.965Z,21.93
2018-05-29T01:19:48.028Z,22.70
2018-05-29T01:22:15.510Z,22.63
2018-05-29T01:24:42.972Z,22.00
2018-05-29T01:27:10.459Z,22.53
2018-05-29T01:29:38.321Z,22.40
2018-05-29T01:32:05.821Z,22.33
2018-05-29T01:34:34.046Z,22.87
2018-05-29T01:37:01.528Z,22.73
2018-05-29T01:39:29.018Z,22.50
2018-05-29T01:41:56.511Z,21.90
2018-05-29T01:44:23.970Z,22.33
2018-05-29T01:46:52.214Z,21.30
2018-05-29T01:49:19.677Z,21.87
2018-05-29T01:51:47.164Z,23.50
2018-05-29T01:54:15.441Z,22.73
2018-05-29T01:56:43.678Z,23.07
2018-05-29T01:59:11.162Z,22.27
2018-05-29T02:01:38.634Z,21.73
2018-05-29T02:04:06.090Z,22.40
2018-05-29T02:06:33.553Z,22.20
2018-05-29T02:09:01.033Z,21.93
2018-05-29T02:11:29.288Z,21.57
2018-05-29T02:13:56.789Z,22.97
2018-05-29T02:16:24.273Z,22.30
2018-05-29T02:18:51.757Z,24.07
2018-05-29T02:21:19.239Z,26.23
2018-05-29T02:23:47.471Z,24.20
2018-05-29T02:26:14.952Z,24.80
2018-05-29T02:28:42.445Z,25.13
2018-05-29T02:31:09.909Z,23.70
2018-05-29T02:33:37.409Z,23.80
2018-05-29T02:36:04.874Z,23.37
2018-05-29T02:38:32.355Z,24.80
2018-05-29T02:41:00.595Z,24.83
2018-05-29T02:43:28.053Z,24.27
2018-05-29T02:45:55.549Z,24.67
2018-05-29T02:48:23.784Z,26.10
2018-05-29T02:50:52.014Z,25.70
2018-05-29T02:53:19.496Z,26.57
2018-05-29T02:55:46.972Z,25.97
2018-05-29T02:58:14.459Z,25.60
2018-05-29T03:00:42.706Z,25.83
2018-05-29T03:03:10.161Z,28.60
2018-05-29T03:05:38.391Z,25.87
2018-05-29T03:08:05.868Z,26.93
2018-05-29T03:10:33.398Z,26.80
2018-05-29T03:13:00.868Z,25.87
2018-05-29T03:15:28.377Z,27.43
2018-05-29T03:17:55.859Z,26.23
2018-05-29T03:20:24.161Z,26.87
2018-05-29T03:22:51.623Z,26.27
2018-05-29T03:25:19.082Z,27.33
2018-05-29T03:27:46.543Z,25.10
2018-05-29T03:30:14.021Z,25.63
2018-05-29T03:32:41.484Z,25.80
2018-05-29T03:35:08.955Z,25.50
2018-05-29T03:37:36.437Z,25.83
2018-05-29T03:40:03.920Z,25.10
2018-05-29T03:42:31.411Z,24.83
2018-05-29T03:44:58.887Z,24.50
2018-05-29T03:47:27.123Z,24.73
2018-05-29T03:49:54.597Z,24.57
2018-05-29T03:52:22.045Z,25.60
2018-05-29T03:54:49.524Z,25.40
2018-05-29T03:57:17.064Z,25.73
2018-05-29T03:59:44.561Z,27.87
2018-05-29T04:02:12.799Z,27.50
2018-05-29T04:04:41.061Z,27.60
2018-05-29T04:07:08.531Z,27.80
2018-05-29T04:09:36.033Z,26.80
2018-05-29T04:12:04.403Z,26.70
2018-05-29T04:14:31.833Z,27.37
2018-05-29T04:16:59.333Z,27.00
2018-05-29T04:19:26.810Z,26.73
2018-05-29T04:21:54.294Z,25.43
2018-05-29T04:24:21.769Z,26.40
2018-05-29T04:26:49.228Z,26.10
2018-05-29T04:29:16.746Z,27.83
2018-05-29T04:31:44.216Z,27.63
2018-05-29T04:34:11.694Z,26.07
2018-05-29T04:36:39.165Z,26.50
2018-05-29T04:39:07.451Z,26.60
2018-05-29T04:41:34.964Z,26.60
2018-05-29T04:44:02.461Z,25.33
2018-05-29T04:46:30.691Z,26.67
2018-05-29T04:48:58.160Z,26.30
2018-05-29T04:51:25.638Z,27.33
2018-05-29T04:53:53.887Z,26.27
2018-05-29T04:56:21.394Z,27.70
2018-05-29T04:58:51.059Z,28.07
2018-05-29T05:01:18.542Z,28.97
2018-05-29T05:03:46.777Z,28.10
2018-05-29T05:06:14.287Z,27.97
2018-05-29T05:08:42.514Z,28.80
2018-05-29T05:11:10.004Z,30.97
2018-05-29T05:13:38.307Z,30.90
2018-05-29T05:16:05.771Z,29.07
2018-05-29T05:18:33.249Z,29.80
2018-05-29T05:21:00.753Z,30.67
2018-05-29T05:23:28.994Z,28.57
2018-05-29T05:25:56.471Z,28.83
2018-05-29T05:28:23.930Z,29.67
2018-05-29T05:30:51.413Z,30.00
2018-05-29T05:33:18.877Z,30.30
2018-05-29T05:35:46.356Z,30.60
2018-05-29T05:38:13.815Z,32.10
2018-05-29T05:40:41.289Z,30.33
2018-05-29T05:43:08.745Z,33.00
2018-05-29T05:45:36.217Z,31.20
2018-05-29T05:48:03.700Z,30.63
2018-05-29T05:50:31.931Z,31.00
2018-05-29T05:52:59.580Z,30.20
2018-05-29T05:55:27.048Z,29.77
2018-05-29T05:57:54.506Z,27.93
2018-05-29T06:00:22.783Z,27.97
2018-05-29T06:02:50.243Z,28.67
2018-05-29T06:05:17.873Z,28.20
2018-05-29T06:07:45.257Z,25.90
2018-05-29T06:10:12.740Z,26.47
2018-05-29T06:12:40.220Z,25.40
2018-05-29T06:15:07.671Z,24.80
2018-05-29T06:17:35.920Z,24.80
2018-05-29T06:20:03.446Z,25.00
2018-05-29T06:22:30.911Z,23.37
2018-05-29T06:24:58.378Z,23.70
2018-05-29T06:27:25.861Z,23.23
2018-05-29T06:29:54.157Z,22.47
2018-05-29T06:32:21.705Z,22.40
2018-05-29T06:34:49.175Z,21.87
2018-05-29T06:37:16.639Z,18.43
2018-05-29T06:39:44.111Z,18.30
2018-05-29T06:42:11.582Z,16.62
2018-05-29T06:44:39.073Z,15.30
2018-05-29T06:47:06.598Z,16.27
2018-05-29T06:49:34.064Z,14.70
2018-05-29T06:52:03.029Z,13.75
2018-05-29T06:54:30.487Z,13.13
2018-05-29T06:56:57.944Z,13.77
2018-05-29T06:59:25.411Z,12.65
2018-05-29T07:01:52.898Z,13.50
2018-05-29T07:04:20.401Z,14.60
2018-05-29T07:06:48.788Z,13.60
2018-05-29T07:09:28.167Z,12.80
2018-05-29T07:11:55.623Z,12.73
2018-05-29T07:14:24.648Z,13.30
2018-05-29T07:16:52.224Z,14.23
2018-05-29T07:19:19.754Z,13.50
2018-05-29T07:21:47.975Z,12.73
2018-05-29T07:24:15.430Z,12.48
2018-05-29T07:26:42.986Z,12.70
2018-05-29T07:29:10.448Z,13.55
2018-05-29T07:31:37.926Z,12.60
2018-05-29T07:34:05.527Z,12.60
2018-05-29T07:36:33.163Z,13.05
2018-05-29T07:39:00.686Z,13.52
2018-05-29T07:41:28.148Z,12.43
2018-05-29T07:43:55.640Z,13.55
2018-05-29T07:46:23.871Z,12.48
2018-05-29T07:48:51.339Z,12.73
2018-05-29T07:51:18.904Z,13.35
2018-05-29T07:53:46.378Z,13.02
2018-05-29T07:56:15.006Z,12.65
2018-05-29T07:58:42.511Z,12.37
2018-05-29T08:01:09.994Z,13.77
2018-05-29T08:03:38.272Z,13.18
2018-05-29T08:06:06.532Z,13.20
2018-05-29T08:08:34.073Z,12.98
2018-05-29T08:11:02.327Z,12.02
2018-05-29T08:13:29.778Z,12.30
2018-05-29T08:15:57.247Z,11.48
2018-05-29T08:18:24.706Z,11.82
2018-05-29T08:20:52.192Z,12.37
2018-05-29T08:23:19.651Z,12.30
2018-05-29T08:25:47.883Z,13.00
2018-05-29T08:28:15.339Z,12.25
2018-05-29T08:30:42.794Z,12.70
2018-05-29T08:33:10.260Z,13.27
2018-05-29T08:35:37.722Z,12.80
2018-05-29T08:38:05.191Z,13.27
2018-05-29T08:40:32.646Z,12.80
2018-05-29T08:43:00.124Z,13.73
2018-05-29T08:45:29.165Z,13.45
2018-05-29T08:47:56.635Z,12.55
2018-05-29T08:50:24.094Z,12.35
2018-05-29T08:52:51.570Z,13.07
2018-05-29T08:55:19.566Z,13.35
2018-05-29T08:57:47.802Z,12.93
2018-05-29T09:00:15.268Z,12.52
2018-05-29T09:02:42.728Z,12.68
2018-05-29T09:05:10.192Z,12.27
2018-05-29T09:07:37.651Z,12.55
2018-05-29T09:10:05.112Z,13.18
2018-05-29T09:12:33.347Z,12.75
2018-05-29T09:15:00.809Z,13.55
2018-05-29T09:17:28.269Z,13.00
2018-05-29T09:19:55.760Z,12.88
2018-05-29T09:22:23.199Z,13.48
2018-05-29T09:24:50.674Z,12.93
2018-05-29T09:27:18.895Z,14.05
2018-05-29T09:29:46.433Z,13.70
2018-05-29T09:32:13.834Z,13.10
2018-05-29T09:34:42.178Z,12.80
2018-05-29T09:37:09.641Z,12.65
2018-05-29T09:39:37.119Z,12.73
2018-05-29T09:42:05.559Z,13.70
2018-05-29T09:44:33.043Z,13.18
2018-05-29T09:47:00.501Z,13.57
2018-05-29T09:49:27.964Z,12.60
2018-05-29T09:51:55.414Z,13.32
2018-05-29T09:54:22.871Z,12.23
2018-05-29T09:56:50.367Z,12.27
2018-05-29T09:59:18.591Z,12.85
2018-05-29T10:01:46.044Z,12.00
2018-05-29T10:04:13.502Z,11.25
2018-05-29T10:06:40.982Z,12.18
2018-05-29T10:09:23.468Z,12.52
2018-05-29T10:11:50.935Z,11.93
2018-05-29T10:14:18.408Z,12.27
2018-05-29T10:16:45.909Z,12.07
2018-05-29T10:19:15.142Z,12.02
2018-05-29T10:21:42.608Z,12.30
2018-05-29T10:24:10.076Z,12.63
2018-05-29T10:26:37.547Z,12.52
2018-05-29T10:29:05.008Z,11.93
2018-05-29T10:31:32.496Z,12.55
2018-05-29T10:33:59.972Z,11.40
2018-05-29T10:36:27.435Z,11.77
2018-05-29T10:38:54.899Z,11.80
2018-05-29T10:41:22.372Z,11.98
2018-05-29T10:43:49.834Z,12.27
2018-05-29T10:46:17.290Z,12.07
2018-05-29T10:48:44.766Z,11.77
2018-05-29T10:51:12.223Z,12.43
2018-05-29T10:53:39.717Z,12.77
2018-05-29T10:56:07.179Z,12.35
2018-05-29T10:58:34.639Z,12.98
2018-05-29T11:01:02.109Z,12.27
2018-05-29T11:03:29.579Z,12.75
2018-05-29T11:05:57.035Z,12.02
2018-05-29T11:08:24.505Z,12.70
2018-05-29T11:10:51.961Z,12.25
2018-05-29T11:13:19.423Z,12.45
2018-05-29T11:15:46.887Z,11.75
2018-05-29T11:18:14.367Z,12.18
2018-05-29T11:20:42.598Z,12.93
2018-05-29T11:23:10.061Z,12.18
2018-05-29T11:25:37.535Z,11.88
2018-05-29T11:28:05.759Z,12.68
2018-05-29T11:30:33.220Z,12.37
2018-05-29T11:33:00.679Z,12.35
2018-05-29T11:35:28.160Z,12.70
2018-05-29T11:37:55.638Z,12.23
2018-05-29T11:40:23.103Z,12.52
2018-05-29T11:42:51.353Z,12.65
2018-05-29T11:45:18.839Z,12.25
2018-05-29T11:47:47.072Z,12.48
2018-05-29T11:50:14.534Z,12.57
2018-05-29T11:52:42.009Z,12.93
2018-05-29T11:55:09.479Z,13.57
2018-05-29T11:57:37.703Z,12.60
2018-05-29T12:00:05.172Z,13.77
2018-05-29T12:02:32.631Z,11.65
2018-05-29T12:05:00.095Z,13.07
2018-05-29T12:07:27.551Z,12.15
2018-05-29T12:09:55.006Z,11.35
2018-05-29T12:12:28.104Z,11.68
2018-05-29T12:14:55.566Z,11.50
2018-05-29T12:17:23.027Z,11.45
2018-05-29T12:19:50.492Z,11.77
2018-05-29T12:22:18.716Z,11.20
2018-05-29T12:24:46.179Z,10.35
2018-05-29T12:27:13.644Z,11.50
2018-05-29T12:29:41.103Z,11.32
2018-05-29T12:32:08.567Z,10.85
2018-05-29T12:34:36.032Z,11.88
2018-05-29T12:37:03.500Z,11.43
2018-05-29T12:39:32.571Z,10.82
2018-05-29T12:42:00.036Z,11.02
2018-05-29T12:44:27.499Z,11.10
2018-05-29T12:46:54.966Z,11.32
2018-05-29T12:49:23.203Z,11.00
2018-05-29T12:51:50.672Z,9.65
2018-05-29T12:54:18.128Z,10.35
2018-05-29T12:56:45.584Z,9.90
2018-05-29T12:59:13.139Z,9.85
2018-05-29T13:01:40.498Z,9.63
2018-05-29T13:04:07.958Z,10.40
2018-05-29T13:06:35.426Z,10.07
2018-05-29T13:09:02.889Z,9.27
2018-05-29T13:11:30.338Z,9.75
2018-05-29T13:13:57.800Z,11.18
2018-05-29T13:16:25.259Z,10.57
2018-05-29T13:18:53.517Z,10.68
2018-05-29T13:21:20.975Z,10.90
2018-05-29T13:23:48.447Z,10.75
2018-05-29T13:26:15.903Z,10.65
2018-05-29T13:28:44.158Z,10.60
2018-05-29T13:31:12.410Z,11.00
2018-05-29T13:33:39.908Z,11.77
2018-05-29T13:36:08.196Z,11.25
2018-05-29T13:38:35.675Z,11.68
2018-05-29T13:41:03.137Z,11.63
2018-05-29T13:43:30.629Z,11.60
2018-05-29T13:46:16.945Z,11.25
2018-05-29T13:48:44.430Z,12.10
2018-05-29T13:51:12.655Z,13.30
2018-05-29T13:53:40.111Z,12.63
2018-05-29T13:56:07.573Z,11.70
2018-05-29T13:58:35.032Z,10.05
2018-05-29T14:01:02.491Z,7.57
2018-05-29T14:03:29.947Z,7.47
2018-05-29T14:05:57.397Z,5.93
2018-05-29T14:08:24.864Z,7.30
2018-05-29T14:10:52.323Z,6.65
2018-05-29T14:13:19.805Z,6.50
2018-05-29T14:15:48.021Z,6.75
2018-05-29T14:18:15.489Z,6.75
2018-05-29T14:20:42.948Z,6.75
2018-05-29T14:23:10.420Z,7.37
2018-05-29T14:25:37.889Z,8.68
2018-05-29T14:28:05.378Z,9.20
2018-05-29T14:30:32.875Z,8.98
2018-05-29T14:33:00.367Z,10.07
2018-05-29T14:35:27.824Z,9.35
2018-05-29T14:37:55.298Z,10.02
2018-05-29T14:40:23.537Z,9.25
2018-05-29T14:42:51.018Z,9.80
2018-05-29T14:45:19.245Z,9.05
2018-05-29T14:47:46.706Z,9.27
2018-05-29T14:50:14.175Z,9.75
2018-05-29T14:52:41.623Z,8.43
2018-05-29T14:55:09.087Z,8.57
2018-05-29T14:57:36.545Z,7.93
2018-05-29T15:00:04.029Z,7.30
2018-05-29T15:02:32.247Z,7.60
2018-05-29T15:04:59.702Z,7.72
2018-05-29T15:07:27.154Z,7.00
2018-05-29T15:09:54.607Z,7.80
2018-05-29T15:12:22.066Z,7.22
2018-05-29T15:14:49.527Z,7.87
2018-05-29T15:17:16.974Z,8.15
2018-05-29T15:19:44.440Z,8.60
2018-05-29T15:22:11.903Z,9.43
2018-05-29T15:24:39.378Z,9.13
2018-05-29T15:27:06.841Z,8.65
2018-05-29T15:29:34.294Z,8.90
2018-05-29T15:32:01.750Z,8.25
2018-05-29T15:34:29.207Z,9.20
2018-05-29T15:36:56.661Z,8.73
2018-05-29T15:39:24.115Z,9.43
2018-05-29T15:41:51.612Z,12.13
2018-05-29T15:44:19.847Z,12.05
2018-05-29T15:46:47.316Z,11.60
2018-05-29T15:49:14.780Z,11.18
2018-05-29T15:51:42.239Z,12.15
2018-05-29T15:54:09.699Z,12.95
2018-05-29T15:56:37.929Z,13.43
2018-05-29T15:59:05.398Z,14.50
2018-05-29T16:01:33.531Z,14.15
2018-05-29T16:04:01.031Z,14.10
2018-05-29T16:06:28.619Z,13.52
2018-05-29T16:08:56.107Z,14.50
2018-05-29T16:11:23.628Z,14.20
2018-05-29T16:13:51.130Z,13.05
2018-05-29T16:16:18.607Z,18.55
2018-05-29T16:18:46.227Z,10.93
2018-05-29T16:21:14.511Z,13.43
2018-05-29T16:23:41.995Z,14.10
2018-05-29T16:26:09.452Z,15.47
2018-05-29T16:28:37.828Z,13.23
2018-05-29T16:31:05.287Z,16.50
2018-05-29T16:33:32.751Z,14.90
2018-05-29T16:36:00.220Z,13.23
2018-05-29T16:38:27.694Z,13.17
2018-05-29T16:40:55.144Z,22.03
2018-05-29T16:43:22.611Z,23.73
2018-05-29T16:45:50.082Z,19.40
2018-05-29T16:48:17.916Z,22.90
2018-05-29T16:53:22.088Z,22.87
2018-05-29T16:55:49.657Z,27.53
2018-05-29T16:58:17.933Z,22.87
2018-05-29T17:00:45.497Z,22.93
2018-05-29T17:03:12.973Z,28.03
2018-05-29T17:05:41.299Z,24.77
2018-05-29T17:08:08.986Z,21.70
2018-05-29T17:10:36.665Z,24.83
2018-05-29T17:13:04.905Z,20.70
2018-05-29T17:15:32.988Z,18.50
2018-05-29T17:18:00.451Z,16.37
2018-05-29T17:20:27.936Z,13.83
2018-05-29T17:22:55.409Z,13.60
2018-05-29T17:25:23.036Z,12.60
2018-05-29T17:27:50.501Z,13.07
2018-05-29T17:30:18.021Z,13.47
2018-05-29T17:32:46.253Z,12.73
2018-05-29T17:35:13.729Z,13.63
2018-05-29T17:37:41.240Z,11.47
2018-05-29T17:40:08.752Z,13.37
2018-05-29T17:42:36.244Z,14.40
2018-05-29T17:45:03.723Z,13.17
2018-05-29T17:47:31.247Z,13.97
2018-05-29T17:49:58.729Z,14.37
2018-05-29T17:52:26.300Z,13.63
2018-05-29T17:54:53.785Z,15.73
2018-05-29T17:57:22.298Z,16.47
2018-05-29T17:59:49.781Z,17.50
2018-05-29T18:02:17.284Z,17.70
2018-05-29T18:04:44.728Z,19.37
2018-05-29T18:07:12.303Z,19.53
2018-05-29T18:09:40.537Z,19.17
2018-05-29T18:12:08.036Z,19.13
2018-05-29T18:14:35.668Z,18.70
2018-05-29T18:17:03.183Z,17.17
2018-05-29T18:19:31.430Z,17.63
2018-05-29T18:21:59.702Z,16.73
2018-05-29T18:24:27.173Z,15.43
2018-05-29T18:26:55.186Z,12.40
2018-05-29T18:29:22.653Z,12.87
2018-05-29T18:31:50.228Z,11.77
2018-05-29T18:34:18.466Z,11.47
2018-05-29T18:36:46.713Z,13.70
2018-05-29T18:39:14.225Z,12.50
2018-05-29T18:41:42.477Z,12.00
2018-05-29T18:44:10.279Z,13.37
2018-05-29T18:46:37.781Z,12.93
2018-05-29T18:49:05.265Z,13.03
2018-05-29T18:51:32.706Z,12.80
2018-05-29T18:54:00.177Z,12.27
2018-05-29T18:56:27.760Z,13.20
2018-05-29T18:58:56.240Z,12.67
2018-05-29T19:01:23.866Z,13.43
2018-05-29T19:03:51.484Z,13.50
2018-05-29T19:06:18.960Z,15.03
2018-05-29T19:08:46.510Z,14.93
2018-05-29T19:11:14.101Z,14.83
2018-05-29T19:13:41.620Z,15.00
2018-05-29T19:16:09.118Z,15.23
2018-05-29T19:18:36.611Z,15.90
2018-05-29T19:21:04.074Z,15.47
2018-05-29T19:23:32.321Z,14.87
2018-05-29T19:25:59.810Z,13.70
2018-05-29T19:28:27.307Z,14.10
2018-05-29T19:30:54.889Z,12.40
2018-05-29T19:33:22.369Z,13.67
2018-05-29T19:35:49.846Z,14.33
2018-05-29T19:38:17.348Z,14.80
2018-05-29T19:40:44.833Z,12.27
2018-05-29T19:43:12.338Z,15.43
2018-05-29T19:45:39.817Z,15.90
2018-05-29T19:48:07.312Z,15.70
2018-05-29T19:50:34.793Z,15.07
2018-05-29T19:53:02.259Z,16.90
2018-05-29T19:55:30.501Z,15.90
2018-05-29T19:57:57.972Z,13.77
2018-05-29T20:00:26.949Z,13.90
2018-05-29T20:02:54.914Z,14.37
2018-05-29T20:05:23.169Z,14.03
2018-05-29T20:07:50.652Z,13.77
2018-05-29T20:10:18.151Z,14.63
2018-05-29T20:12:46.897Z,14.00
2018-05-29T20:15:15.169Z,15.63
2018-05-29T20:17:42.643Z,16.03
2018-05-29T20:20:10.157Z,17.40
2018-05-29T20:22:37.649Z,17.70
2018-05-29T20:25:05.137Z,19.00
2018-05-29T20:27:32.612Z,17.87
2018-05-29T20:30:00.846Z,18.77
2018-05-29T20:32:28.372Z,21.00
2018-05-29T20:34:56.104Z,21.30
2018-05-29T20:37:23.577Z,22.33
2018-05-29T20:39:51.213Z,21.43
2018-05-29T20:42:18.677Z,20.57
2018-05-29T20:44:46.142Z,21.50
2018-05-29T20:47:13.650Z,20.10
2018-05-29T20:49:41.137Z,20.07
2018-05-29T20:52:08.608Z,22.20
2018-05-29T20:54:36.081Z,21.87
2018-05-29T20:57:03.595Z,21.33
2018-05-29T20:59:31.109Z,20.27
2018-05-29T21:01:58.585Z,20.77
2018-05-29T21:04:26.061Z,19.67
2018-05-29T21:06:56.119Z,20.57
2018-05-29T21:09:25.233Z,18.73
2018-05-29T21:11:52.725Z,19.60
2018-05-29T21:14:20.201Z,18.57
2018-05-29T21:16:47.836Z,20.27
2018-05-29T21:19:16.085Z,21.23
2018-05-29T21:21:43.551Z,21.87
2018-05-29T21:24:11.016Z,20.83
2018-05-29T21:26:39.275Z,21.30
2018-05-29T21:29:06.756Z,23.07
2018-05-29T21:31:34.274Z,22.47
2018-05-29T21:34:02.537Z,24.07
2018-05-29T21:36:30.011Z,22.73
2018-05-29T21:38:57.518Z,23.23
2018-05-29T21:41:25.000Z,23.53
2018-05-29T21:43:52.470Z,24.43
2018-05-29T21:46:19.941Z,24.03
2018-05-29T21:48:47.408Z,24.43
2018-05-29T21:51:14.939Z,25.00
2018-05-29T21:53:42.463Z,25.30
2018-05-29T21:59:00.748Z,24.83
2018-05-29T22:01:28.218Z,23.43
2018-05-29T22:04:01.316Z,25.77
2018-05-29T22:06:28.783Z,27.47
2018-05-29T22:08:57.041Z,27.60
2018-05-29T22:11:24.499Z,27.07
2018-05-29T22:13:52.002Z,28.03
2018-05-29T22:16:19.464Z,27.87
2018-05-29T22:18:47.693Z,29.60
2018-05-29T22:21:15.190Z,30.00
2018-05-29T22:23:42.659Z,29.10
2018-05-29T22:26:10.129Z,27.70
2018-05-29T22:28:37.592Z,23.50
2018-05-29T22:31:05.820Z,24.13
2018-05-29T22:33:34.165Z,23.23
2018-05-29T22:36:01.664Z,23.10
2018-05-29T22:38:29.138Z,22.83
2018-05-29T22:40:56.618Z,23.80
2018-05-29T22:43:24.088Z,24.87
2018-05-29T22:45:51.564Z,23.30
2018-05-29T22:48:19.045Z,23.07
2018-05-29T22:50:46.508Z,22.70
2018-05-29T22:53:13.978Z,23.80
2018-05-29T22:55:42.952Z,23.47
2018-05-29T22:58:10.466Z,22.33
2018-05-29T23:00:37.949Z,24.37
2018-05-29T23:03:05.486Z,22.60
2018-05-29T23:05:33.755Z,24.47
2018-05-29T23:08:01.217Z,23.77
2018-05-29T23:10:28.693Z,24.67
2018-05-29T23:12:56.169Z,25.60
2018-05-29T23:15:23.644Z,24.53
2018-05-29T23:17:51.113Z,25.50
2018-05-29T23:20:18.644Z,25.23
2018-05-29T23:22:46.117Z,24.23
2018-05-29T23:25:13.584Z,25.67
2018-05-29T23:27:41.061Z,27.07
2018-05-29T23:30:08.524Z,26.47
2018-05-29T23:32:36.123Z,27.73
2018-05-29T23:35:03.601Z,27.30
2018-05-29T23:37:31.073Z,28.30
2018-05-29T23:39:58.549Z,26.47
2018-05-29T23:42:26.012Z,28.00
2018-05-29T23:44:53.481Z,29.30
2018-05-29T23:47:21.733Z,27.47
2018-05-29T23:49:49.200Z,26.77
2018-05-29T23:52:16.720Z,28.47
2018-05-29T23:54:44.183Z,26.37
2018-05-29T23:57:11.648Z,27.17
2018-05-29T23:59:39.121Z,24.80
